sensor_id;sensor_type;location;lat;lon;timestamp;pressure;altitude;pressure_sealevel;temperature;humidity
78317;BME280;67572;50.930;18.276;2023-09-12T00:01:57;98785.13;;;16.30;78.82
78317;BME280;67572;50.930;18.276;2023-09-12T00:05:02;98785.22;;;16.20;80.10
78317;BME280;67572;50.930;18.276;2023-09-12T00:08:06;98785.00;;;16.31;80.82
78317;BME280;67572;50.930;18.276;2023-09-12T00:11:10;98782.59;;;16.11;81.13
78317;BME280;67572;50.930;18.276;2023-09-12T00:14:15;98777.22;;;16.11;80.26
78317;BME280;67572;50.930;18.276;2023-09-12T00:17:19;98785.19;;;15.93;80.61
78317;BME280;67572;50.930;18.276;2023-09-12T00:20:24;98781.28;;;15.77;81.59
78317;BME280;67572;50.930;18.276;2023-09-12T00:23:27;98783.97;;;15.77;81.87
78317;BME280;67572;50.930;18.276;2023-09-12T00:26:31;98783.91;;;15.97;81.10
78317;BME280;67572;50.930;18.276;2023-09-12T00:29:35;98781.56;;;15.84;81.02
78317;BME280;67572;50.930;18.276;2023-09-12T00:32:38;98781.22;;;15.97;80.68
78317;BME280;67572;50.930;18.276;2023-09-12T00:35:43;98779.97;;;15.91;79.65
78317;BME280;67572;50.930;18.276;2023-09-12T00:38:47;98785.16;;;15.65;80.27
78317;BME280;67572;50.930;18.276;2023-09-12T00:41:50;98788.22;;;15.61;81.11
78317;BME280;67572;50.930;18.276;2023-09-12T00:44:54;98787.13;;;15.73;81.04
78317;BME280;67572;50.930;18.276;2023-09-12T00:47:58;98784.94;;;15.86;82.26
78317;BME280;67572;50.930;18.276;2023-09-12T00:51:05;98781.72;;;15.82;81.09
78317;BME280;67572;50.930;18.276;2023-09-12T00:54:09;98782.88;;;15.70;80.33
78317;BME280;67572;50.930;18.276;2023-09-12T00:57:14;98778.41;;;15.32;80.61
78317;BME280;67572;50.930;18.276;2023-09-12T01:00:17;98788.00;;;15.44;80.61
78317;BME280;67572;50.930;18.276;2023-09-12T01:03:21;98777.56;;;15.32;81.85
78317;BME280;67572;50.930;18.276;2023-09-12T01:06:27;98780.69;;;15.37;82.63
78317;BME280;67572;50.930;18.276;2023-09-12T01:09:32;98780.06;;;15.52;82.05
78317;BME280;67572;50.930;18.276;2023-09-12T01:12:36;98776.31;;;15.26;82.39
78317;BME280;67572;50.930;18.276;2023-09-12T01:15:40;98776.59;;;15.33;81.87
78317;BME280;67572;50.930;18.276;2023-09-12T01:18:44;98777.88;;;15.29;82.09
78317;BME280;67572;50.930;18.276;2023-09-12T01:22:09;98779.56;;;15.30;82.49
78317;BME280;67572;50.930;18.276;2023-09-12T01:25:34;98775.03;;;15.49;80.96
78317;BME280;67572;50.930;18.276;2023-09-12T01:28:47;98781.97;;;15.23;81.54
78317;BME280;67572;50.930;18.276;2023-09-12T01:31:55;98774.53;;;15.07;82.70
78317;BME280;67572;50.930;18.276;2023-09-12T01:34:59;98770.53;;;15.31;81.99
78317;BME280;67572;50.930;18.276;2023-09-12T01:38:04;98771.66;;;15.18;82.40
78317;BME280;67572;50.930;18.276;2023-09-12T01:41:08;98768.44;;;15.15;83.40
78317;BME280;67572;50.930;18.276;2023-09-12T01:44:14;98772.53;;;15.19;82.77
78317;BME280;67572;50.930;18.276;2023-09-12T01:47:18;98773.69;;;15.07;82.33
78317;BME280;67572;50.930;18.276;2023-09-12T01:50:23;98776.50;;;15.05;81.50
78317;BME280;67572;50.930;18.276;2023-09-12T01:53:29;98774.50;;;15.26;82.05
78317;BME280;67572;50.930;18.276;2023-09-12T01:56:33;98774.50;;;15.17;82.17
78317;BME280;67572;50.930;18.276;2023-09-12T01:59:38;98774.63;;;15.25;82.52
78317;BME280;67572;50.930;18.276;2023-09-12T02:02:42;98771.13;;;15.34;81.83
78317;BME280;67572;50.930;18.276;2023-09-12T02:05:45;98771.25;;;15.04;82.50
78317;BME280;67572;50.930;18.276;2023-09-12T02:08:49;98762.84;;;14.89;82.85
78317;BME280;67572;50.930;18.276;2023-09-12T02:11:53;98764.38;;;14.91;83.75
78317;BME280;67572;50.930;18.276;2023-09-12T02:14:57;98762.66;;;15.10;82.79
78317;BME280;67572;50.930;18.276;2023-09-12T02:18:01;98765.50;;;14.98;82.98
78317;BME280;67572;50.930;18.276;2023-09-12T02:21:05;98763.53;;;14.91;83.62
78317;BME280;67572;50.930;18.276;2023-09-12T02:24:09;98762.56;;;14.92;83.09
78317;BME280;67572;50.930;18.276;2023-09-12T02:27:12;98766.63;;;15.15;83.34
78317;BME280;67572;50.930;18.276;2023-09-12T02:30:17;98761.00;;;14.99;83.32
78317;BME280;67572;50.930;18.276;2023-09-12T02:33:20;98766.91;;;14.93;83.83
78317;BME280;67572;50.930;18.276;2023-09-12T02:36:24;98769.03;;;14.89;83.78
78317;BME280;67572;50.930;18.276;2023-09-12T02:39:28;98771.56;;;14.91;83.46
78317;BME280;67572;50.930;18.276;2023-09-12T02:42:31;98767.91;;;14.73;84.69
78317;BME280;67572;50.930;18.276;2023-09-12T02:45:37;98766.63;;;14.86;84.01
78317;BME280;67572;50.930;18.276;2023-09-12T02:48:40;98768.91;;;14.81;83.90
78317;BME280;67572;50.930;18.276;2023-09-12T02:51:45;98761.84;;;14.90;83.61
78317;BME280;67572;50.930;18.276;2023-09-12T02:54:48;98771.16;;;15.05;83.05
78317;BME280;67572;50.930;18.276;2023-09-12T02:57:52;98768.31;;;15.07;82.69
78317;BME280;67572;50.930;18.276;2023-09-12T03:00:57;98768.31;;;15.07;82.65
78317;BME280;67572;50.930;18.276;2023-09-12T03:04:02;98766.50;;;15.07;82.31
78317;BME280;67572;50.930;18.276;2023-09-12T03:07:06;98768.75;;;14.83;83.21
78317;BME280;67572;50.930;18.276;2023-09-12T03:10:09;98773.41;;;14.90;82.98
78317;BME280;67572;50.930;18.276;2023-09-12T03:13:13;98771.16;;;14.76;82.80
78317;BME280;67572;50.930;18.276;2023-09-12T03:16:17;98771.41;;;14.73;83.99
78317;BME280;67572;50.930;18.276;2023-09-12T03:19:22;98774.81;;;14.75;85.58
78317;BME280;67572;50.930;18.276;2023-09-12T03:22:26;98775.50;;;15.06;85.52
78317;BME280;67572;50.930;18.276;2023-09-12T03:25:29;98774.78;;;15.23;86.25
78317;BME280;67572;50.930;18.276;2023-09-12T03:28:33;98785.00;;;15.57;86.25
78317;BME280;67572;50.930;18.276;2023-09-12T03:31:38;98777.09;;;15.75;84.08
78317;BME280;67572;50.930;18.276;2023-09-12T03:34:42;98779.41;;;15.31;83.35
78317;BME280;67572;50.930;18.276;2023-09-12T03:37:46;98773.53;;;15.08;84.22
78317;BME280;67572;50.930;18.276;2023-09-12T03:40:50;98774.53;;;15.07;84.42
78317;BME280;67572;50.930;18.276;2023-09-12T03:43:53;98773.94;;;15.04;84.50
78317;BME280;67572;50.930;18.276;2023-09-12T03:46:59;98781.25;;;15.11;82.09
78317;BME280;67572;50.930;18.276;2023-09-12T03:50:03;98771.69;;;14.80;82.82
78317;BME280;67572;50.930;18.276;2023-09-12T03:53:07;98782.41;;;14.80;82.04
78317;BME280;67572;50.930;18.276;2023-09-12T03:56:11;98783.84;;;14.84;81.83
78317;BME280;67572;50.930;18.276;2023-09-12T03:59:16;98784.38;;;14.78;81.58
78317;BME280;67572;50.930;18.276;2023-09-12T04:02:20;98781.84;;;14.76;81.96
78317;BME280;67572;50.930;18.276;2023-09-12T04:05:25;98778.47;;;14.64;82.26
78317;BME280;67572;50.930;18.276;2023-09-12T04:08:28;98782.69;;;14.67;83.17
78317;BME280;67572;50.930;18.276;2023-09-12T04:11:31;98774.78;;;14.65;83.12
78317;BME280;67572;50.930;18.276;2023-09-12T04:14:49;98776.91;;;14.62;82.40
78317;BME280;67572;50.930;18.276;2023-09-12T04:17:55;98775.88;;;14.43;84.74
78317;BME280;67572;50.930;18.276;2023-09-12T04:20:58;98787.78;;;14.89;83.35
78317;BME280;67572;50.930;18.276;2023-09-12T04:24:02;98784.53;;;14.76;82.23
78317;BME280;67572;50.930;18.276;2023-09-12T04:27:06;98782.25;;;14.71;82.25
78317;BME280;67572;50.930;18.276;2023-09-12T04:30:10;98781.28;;;14.63;82.58
78317;BME280;67572;50.930;18.276;2023-09-12T04:33:15;98779.41;;;14.44;84.03
78317;BME280;67572;50.930;18.276;2023-09-12T04:36:19;98777.75;;;14.62;83.48
78317;BME280;67572;50.930;18.276;2023-09-12T04:39:23;98781.84;;;14.76;83.45
78317;BME280;67572;50.930;18.276;2023-09-12T04:42:27;98781.81;;;14.57;83.82
78317;BME280;67572;50.930;18.276;2023-09-12T04:45:33;98783.00;;;14.74;83.75
78317;BME280;67572;50.930;18.276;2023-09-12T04:48:38;98778.91;;;14.69;84.18
78317;BME280;67572;50.930;18.276;2023-09-12T04:51:43;98786.19;;;14.58;85.38
78317;BME280;67572;50.930;18.276;2023-09-12T04:54:46;98783.50;;;14.58;85.51
78317;BME280;67572;50.930;18.276;2023-09-12T04:57:50;98781.72;;;15.07;83.48
78317;BME280;67572;50.930;18.276;2023-09-12T05:00:54;98786.78;;;15.00;83.84
78317;BME280;67572;50.930;18.276;2023-09-12T05:03:59;98782.28;;;15.01;84.48
78317;BME280;67572;50.930;18.276;2023-09-12T05:07:03;98785.38;;;15.06;84.17
78317;BME280;67572;50.930;18.276;2023-09-12T05:10:07;98799.03;;;14.93;85.98
78317;BME280;67572;50.930;18.276;2023-09-12T05:13:11;98797.34;;;15.21;86.09
78317;BME280;67572;50.930;18.276;2023-09-12T05:16:14;98796.00;;;15.73;84.87
78317;BME280;67572;50.930;18.276;2023-09-12T05:19:20;98800.03;;;15.87;84.69
78317;BME280;67572;50.930;18.276;2023-09-12T05:22:25;98799.47;;;15.84;86.10
78317;BME280;67572;50.930;18.276;2023-09-12T05:25:29;98802.41;;;15.90;86.04
78317;BME280;67572;50.930;18.276;2023-09-12T05:28:33;98801.31;;;16.20;85.36
78317;BME280;67572;50.930;18.276;2023-09-12T05:31:38;98805.31;;;16.34;85.27
78317;BME280;67572;50.930;18.276;2023-09-12T05:34:43;98811.81;;;16.31;85.34
78317;BME280;67572;50.930;18.276;2023-09-12T05:37:47;98799.81;;;16.53;85.07
78317;BME280;67572;50.930;18.276;2023-09-12T05:40:51;98804.44;;;16.61;86.08
78317;BME280;67572;50.930;18.276;2023-09-12T05:43:55;98808.22;;;16.68;86.70
78317;BME280;67572;50.930;18.276;2023-09-12T05:46:59;98818.38;;;16.92;86.25
78317;BME280;67572;50.930;18.276;2023-09-12T05:50:05;98813.72;;;16.94;86.20
78317;BME280;67572;50.930;18.276;2023-09-12T05:53:09;98819.47;;;17.17;85.23
78317;BME280;67572;50.930;18.276;2023-09-12T05:56:12;98818.91;;;17.31;85.10
78317;BME280;67572;50.930;18.276;2023-09-12T05:59:16;98817.66;;;17.43;85.44
78317;BME280;67572;50.930;18.276;2023-09-12T06:02:20;98823.34;;;17.66;84.00
78317;BME280;67572;50.930;18.276;2023-09-12T06:05:25;98818.16;;;17.91;81.78
78317;BME280;67572;50.930;18.276;2023-09-12T06:08:28;98816.22;;;18.01;81.01
78317;BME280;67572;50.930;18.276;2023-09-12T06:11:31;98821.19;;;18.22;79.95
78317;BME280;67572;50.930;18.276;2023-09-12T06:14:35;98820.84;;;18.59;80.47
78317;BME280;67572;50.930;18.276;2023-09-12T06:17:38;98827.97;;;18.68;79.37
78317;BME280;67572;50.930;18.276;2023-09-12T06:20:43;98824.94;;;18.79;78.32
78317;BME280;67572;50.930;18.276;2023-09-12T06:23:46;98830.88;;;18.99;77.34
78317;BME280;67572;50.930;18.276;2023-09-12T06:26:50;98832.38;;;19.02;77.20
78317;BME280;67572;50.930;18.276;2023-09-12T06:29:54;98832.94;;;19.22;77.93
78317;BME280;67572;50.930;18.276;2023-09-12T06:32:57;98830.88;;;19.56;77.02
78317;BME280;67572;50.930;18.276;2023-09-12T06:36:02;98830.91;;;19.64;77.18
78317;BME280;67572;50.930;18.276;2023-09-12T06:39:06;98828.72;;;19.76;77.52
78317;BME280;67572;50.930;18.276;2023-09-12T06:42:09;98827.50;;;19.87;76.97
78317;BME280;67572;50.930;18.276;2023-09-12T06:45:13;98828.84;;;19.99;75.20
78317;BME280;67572;50.930;18.276;2023-09-12T06:48:16;98821.53;;;20.16;75.27
78317;BME280;67572;50.930;18.276;2023-09-12T06:51:24;98823.53;;;20.22;74.78
78317;BME280;67572;50.930;18.276;2023-09-12T06:54:35;98825.31;;;20.38;73.55
78317;BME280;67572;50.930;18.276;2023-09-12T06:57:39;98836.88;;;20.63;73.72
78317;BME280;67572;50.930;18.276;2023-09-12T07:00:47;98830.69;;;20.54;72.70
78317;BME280;67572;50.930;18.276;2023-09-12T07:03:51;98841.78;;;20.67;73.20
78317;BME280;67572;50.930;18.276;2023-09-12T07:06:58;98838.50;;;20.80;73.64
78317;BME280;67572;50.930;18.276;2023-09-12T07:10:03;98835.56;;;20.90;72.57
78317;BME280;67572;50.930;18.276;2023-09-12T07:13:25;98833.84;;;21.20;71.93
78317;BME280;67572;50.930;18.276;2023-09-12T07:16:30;98830.56;;;21.32;71.83
78317;BME280;67572;50.930;18.276;2023-09-12T07:19:35;98831.81;;;21.45;71.86
78317;BME280;67572;50.930;18.276;2023-09-12T07:22:40;98832.06;;;21.73;70.64
78317;BME280;67572;50.930;18.276;2023-09-12T07:25:43;98833.66;;;21.82;70.33
78317;BME280;67572;50.930;18.276;2023-09-12T07:28:46;98843.97;;;22.01;69.68
78317;BME280;67572;50.930;18.276;2023-09-12T07:31:52;98841.00;;;22.11;68.52
78317;BME280;67572;50.930;18.276;2023-09-12T07:34:55;98837.84;;;22.37;69.15
78317;BME280;67572;50.930;18.276;2023-09-12T07:38:00;98833.19;;;22.82;66.66
78317;BME280;67572;50.930;18.276;2023-09-12T07:41:05;98834.28;;;23.02;65.86
78317;BME280;67572;50.930;18.276;2023-09-12T07:44:08;98838.63;;;23.18;65.18
78317;BME280;67572;50.930;18.276;2023-09-12T07:47:13;98834.56;;;23.29;64.19
78317;BME280;67572;50.930;18.276;2023-09-12T07:50:17;98832.81;;;23.64;61.85
78317;BME280;67572;50.930;18.276;2023-09-12T07:53:22;98823.19;;;23.61;61.16
78317;BME280;67572;50.930;18.276;2023-09-12T07:56:26;98824.28;;;23.67;60.76
78317;BME280;67572;50.930;18.276;2023-09-12T07:59:29;98824.63;;;23.85;61.62
78317;BME280;67572;50.930;18.276;2023-09-12T08:02:33;98831.75;;;24.21;59.95
78317;BME280;67572;50.930;18.276;2023-09-12T08:05:36;98830.75;;;24.28;57.50
78317;BME280;67572;50.930;18.276;2023-09-12T08:08:41;98824.81;;;24.12;58.06
78317;BME280;67572;50.930;18.276;2023-09-12T08:11:47;98829.47;;;24.59;58.10
78317;BME280;67572;50.930;18.276;2023-09-12T08:14:50;98831.50;;;24.44;57.54
78317;BME280;67572;50.930;18.276;2023-09-12T08:17:54;98827.94;;;24.43;57.21
78317;BME280;67572;50.930;18.276;2023-09-12T08:20:57;98830.75;;;24.63;54.28
78317;BME280;67572;50.930;18.276;2023-09-12T08:24:03;98834.34;;;24.77;55.27
78317;BME280;67572;50.930;18.276;2023-09-12T08:27:07;98835.81;;;24.73;56.02
78317;BME280;67572;50.930;18.276;2023-09-12T08:30:12;98832.97;;;24.94;54.52
78317;BME280;67572;50.930;18.276;2023-09-12T08:33:15;98834.28;;;25.11;54.40
78317;BME280;67572;50.930;18.276;2023-09-12T08:36:19;98837.69;;;25.46;54.26
78317;BME280;67572;50.930;18.276;2023-09-12T08:39:26;98827.69;;;25.73;52.44
78317;BME280;67572;50.930;18.276;2023-09-12T08:42:30;98834.97;;;25.53;50.20
78317;BME280;67572;50.930;18.276;2023-09-12T08:45:35;98838.75;;;25.59;51.74
78317;BME280;67572;50.930;18.276;2023-09-12T08:48:40;98835.84;;;25.73;50.54
78317;BME280;67572;50.930;18.276;2023-09-12T08:51:44;98831.41;;;25.99;48.89
78317;BME280;67572;50.930;18.276;2023-09-12T08:54:49;98835.00;;;25.93;48.35
78317;BME280;67572;50.930;18.276;2023-09-12T08:57:55;98834.50;;;26.29;48.05
78317;BME280;67572;50.930;18.276;2023-09-12T09:00:59;98824.03;;;26.46;49.16
78317;BME280;67572;50.930;18.276;2023-09-12T09:04:05;98831.97;;;26.54;47.38
78317;BME280;67572;50.930;18.276;2023-09-12T09:07:09;98828.13;;;26.68;48.48
78317;BME280;67572;50.930;18.276;2023-09-12T09:10:17;98820.97;;;26.67;46.91
78317;BME280;67572;50.930;18.276;2023-09-12T09:13:39;98830.38;;;27.23;46.08
78317;BME280;67572;50.930;18.276;2023-09-12T09:16:42;98831.09;;;27.05;43.88
78317;BME280;67572;50.930;18.276;2023-09-12T09:19:46;98828.16;;;27.13;44.01
78317;BME280;67572;50.930;18.276;2023-09-12T09:22:57;98824.69;;;27.24;45.97
78317;BME280;67572;50.930;18.276;2023-09-12T09:26:02;98819.84;;;27.26;42.71
78317;BME280;67572;50.930;18.276;2023-09-12T09:29:10;98822.22;;;27.48;44.33
78317;BME280;67572;50.930;18.276;2023-09-12T09:32:17;98819.75;;;27.71;43.59
78317;BME280;67572;50.930;18.276;2023-09-12T09:35:24;98826.47;;;27.93;44.02
78317;BME280;67572;50.930;18.276;2023-09-12T09:38:28;98825.13;;;28.03;43.29
78317;BME280;67572;50.930;18.276;2023-09-12T09:41:33;98821.06;;;27.87;43.95
78317;BME280;67572;50.930;18.276;2023-09-12T09:44:37;98828.34;;;28.18;41.67
78317;BME280;67572;50.930;18.276;2023-09-12T09:47:42;98827.84;;;28.28;41.06
78317;BME280;67572;50.930;18.276;2023-09-12T09:50:46;98824.94;;;28.23;41.20
78317;BME280;67572;50.930;18.276;2023-09-12T09:53:51;98821.91;;;27.87;39.82
78317;BME280;67572;50.930;18.276;2023-09-12T09:56:57;98825.47;;;27.88;39.87
78317;BME280;67572;50.930;18.276;2023-09-12T10:00:00;98830.28;;;27.92;39.74
78317;BME280;67572;50.930;18.276;2023-09-12T10:03:10;98831.34;;;27.91;40.24
78317;BME280;67572;50.930;18.276;2023-09-12T10:06:17;98827.63;;;28.47;38.68
78317;BME280;67572;50.930;18.276;2023-09-12T10:09:22;98832.44;;;28.09;36.45
78317;BME280;67572;50.930;18.276;2023-09-12T10:12:29;98815.72;;;28.17;35.78
78317;BME280;67572;50.930;18.276;2023-09-12T10:15:36;98823.16;;;28.10;35.81
78317;BME280;67572;50.930;18.276;2023-09-12T10:18:46;98823.66;;;28.62;35.81
78317;BME280;67572;50.930;18.276;2023-09-12T10:21:58;98824.25;;;28.82;36.90
78317;BME280;67572;50.930;18.276;2023-09-12T10:25:03;98820.38;;;28.71;36.89
78317;BME280;67572;50.930;18.276;2023-09-12T10:28:09;98825.00;;;29.08;37.37
78317;BME280;67572;50.930;18.276;2023-09-12T10:31:13;98820.31;;;28.96;38.26
78317;BME280;67572;50.930;18.276;2023-09-12T10:34:18;98816.59;;;28.91;35.71
78317;BME280;67572;50.930;18.276;2023-09-12T10:37:26;98815.44;;;28.98;36.23
78317;BME280;67572;50.930;18.276;2023-09-12T10:40:31;98816.13;;;28.75;36.55
78317;BME280;67572;50.930;18.276;2023-09-12T10:43:37;98814.84;;;28.78;37.05
78317;BME280;67572;50.930;18.276;2023-09-12T10:46:45;98813.13;;;29.14;36.42
78317;BME280;67572;50.930;18.276;2023-09-12T10:49:50;98809.22;;;28.91;35.68
78317;BME280;67572;50.930;18.276;2023-09-12T10:52:53;98814.13;;;29.73;36.63
78317;BME280;67572;50.930;18.276;2023-09-12T10:56:00;98816.75;;;29.38;37.37
78317;BME280;67572;50.930;18.276;2023-09-12T10:59:10;98815.13;;;29.48;36.83
78317;BME280;67572;50.930;18.276;2023-09-12T11:02:28;98816.19;;;29.47;36.25
78317;BME280;67572;50.930;18.276;2023-09-12T11:05:36;98811.47;;;29.66;36.45
78317;BME280;67572;50.930;18.276;2023-09-12T11:08:40;98810.44;;;30.14;35.91
78317;BME280;67572;50.930;18.276;2023-09-12T11:11:45;98806.97;;;30.30;35.80
78317;BME280;67572;50.930;18.276;2023-09-12T11:15:05;98816.25;;;29.82;35.89
78317;BME280;67572;50.930;18.276;2023-09-12T11:18:09;98808.66;;;30.08;35.35
78317;BME280;67572;50.930;18.276;2023-09-12T11:21:12;98808.06;;;29.94;35.05
78317;BME280;67572;50.930;18.276;2023-09-12T11:24:17;98816.41;;;30.23;34.78
78317;BME280;67572;50.930;18.276;2023-09-12T11:27:22;98813.19;;;30.26;34.17
78317;BME280;67572;50.930;18.276;2023-09-12T11:30:28;98811.63;;;30.30;34.99
78317;BME280;67572;50.930;18.276;2023-09-12T11:33:33;98806.75;;;30.84;34.58
78317;BME280;67572;50.930;18.276;2023-09-12T11:36:41;98804.03;;;30.84;33.60
78317;BME280;67572;50.930;18.276;2023-09-12T11:39:45;98799.28;;;30.96;33.51
78317;BME280;67572;50.930;18.276;2023-09-12T11:42:48;98805.19;;;30.88;32.87
78317;BME280;67572;50.930;18.276;2023-09-12T11:45:55;98804.59;;;31.14;32.77
78317;BME280;67572;50.930;18.276;2023-09-12T11:49:01;98797.31;;;30.91;31.84
78317;BME280;67572;50.930;18.276;2023-09-12T11:52:08;98802.75;;;31.48;31.98
78317;BME280;67572;50.930;18.276;2023-09-12T11:55:21;98799.03;;;31.88;31.10
78317;BME280;67572;50.930;18.276;2023-09-12T11:58:25;98795.47;;;31.26;31.72
78317;BME280;67572;50.930;18.276;2023-09-12T12:01:31;98794.75;;;30.61;33.02
78317;BME280;67572;50.930;18.276;2023-09-12T12:04:36;98788.75;;;31.05;31.20
78317;BME280;67572;50.930;18.276;2023-09-12T12:07:40;98795.53;;;31.59;32.43
78317;BME280;67572;50.930;18.276;2023-09-12T12:10:49;98796.59;;;31.75;31.86
78317;BME280;67572;50.930;18.276;2023-09-12T12:13:53;98789.16;;;31.25;32.04
78317;BME280;67572;50.930;18.276;2023-09-12T12:17:05;98784.09;;;30.65;32.19
78317;BME280;67572;50.930;18.276;2023-09-12T12:20:09;98779.94;;;30.74;31.09
78317;BME280;67572;50.930;18.276;2023-09-12T12:23:14;98781.63;;;30.52;31.18
78317;BME280;67572;50.930;18.276;2023-09-12T12:26:19;98778.78;;;30.99;31.59
78317;BME280;67572;50.930;18.276;2023-09-12T12:29:23;98779.34;;;31.01;32.00
78317;BME280;67572;50.930;18.276;2023-09-12T12:32:28;98772.56;;;30.51;31.43
78317;BME280;67572;50.930;18.276;2023-09-12T12:35:32;98774.09;;;30.59;30.99
78317;BME280;67572;50.930;18.276;2023-09-12T12:38:55;98771.78;;;31.53;29.83
78317;BME280;67572;50.930;18.276;2023-09-12T12:41:59;98773.59;;;31.64;31.30
78317;BME280;67572;50.930;18.276;2023-09-12T12:45:11;98774.69;;;31.80;30.05
78317;BME280;67572;50.930;18.276;2023-09-12T12:48:16;98773.94;;;32.40;28.62
78317;BME280;67572;50.930;18.276;2023-09-12T12:51:21;98775.72;;;32.73;27.68
78317;BME280;67572;50.930;18.276;2023-09-12T12:54:24;98780.78;;;32.60;29.44
78317;BME280;67572;50.930;18.276;2023-09-12T12:57:28;98774.31;;;32.93;28.39
78317;BME280;67572;50.930;18.276;2023-09-12T13:00:32;98772.28;;;32.39;29.08
78317;BME280;67572;50.930;18.276;2023-09-12T13:03:37;98774.94;;;32.34;28.09
78317;BME280;67572;50.930;18.276;2023-09-12T13:06:40;98774.44;;;32.81;29.74
78317;BME280;67572;50.930;18.276;2023-09-12T13:09:44;98777.38;;;32.74;28.38
78317;BME280;67572;50.930;18.276;2023-09-12T13:12:50;98767.94;;;32.43;28.82
78317;BME280;67572;50.930;18.276;2023-09-12T13:15:54;98765.84;;;32.77;28.90
78317;BME280;67572;50.930;18.276;2023-09-12T13:18:59;98766.91;;;33.52;28.15
78317;BME280;67572;50.930;18.276;2023-09-12T13:22:03;98768.88;;;33.57;27.28
78317;BME280;67572;50.930;18.276;2023-09-12T13:25:07;98762.41;;;33.14;27.41
78317;BME280;67572;50.930;18.276;2023-09-12T13:28:11;98760.81;;;33.18;28.67
78317;BME280;67572;50.930;18.276;2023-09-12T13:31:14;98765.53;;;33.55;27.38
78317;BME280;67572;50.930;18.276;2023-09-12T13:34:19;98765.75;;;33.80;28.06
78317;BME280;67572;50.930;18.276;2023-09-12T13:37:23;98760.91;;;32.79;28.37
78317;BME280;67572;50.930;18.276;2023-09-12T13:40:26;98761.97;;;33.27;28.01
78317;BME280;67572;50.930;18.276;2023-09-12T13:43:30;98764.19;;;32.33;29.27
78317;BME280;67572;50.930;18.276;2023-09-12T13:46:33;98759.19;;;31.74;30.51
78317;BME280;67572;50.930;18.276;2023-09-12T13:49:38;98758.00;;;32.03;30.19
78317;BME280;67572;50.930;18.276;2023-09-12T13:52:42;98752.47;;;32.20;30.38
78317;BME280;67572;50.930;18.276;2023-09-12T13:55:45;98756.28;;;31.64;30.97
78317;BME280;67572;50.930;18.276;2023-09-12T13:59:09;98762.91;;;32.01;31.04
78317;BME280;67572;50.930;18.276;2023-09-12T14:02:12;98762.00;;;32.56;32.48
78317;BME280;67572;50.930;18.276;2023-09-12T14:05:18;98761.19;;;31.95;31.26
78317;BME280;67572;50.930;18.276;2023-09-12T14:08:22;98761.91;;;32.68;30.18
78317;BME280;67572;50.930;18.276;2023-09-12T14:11:26;98755.47;;;31.80;32.21
78317;BME280;67572;50.930;18.276;2023-09-12T14:14:37;98757.53;;;31.39;32.45
78317;BME280;67572;50.930;18.276;2023-09-12T14:17:43;98763.19;;;32.00;31.57
78317;BME280;67572;50.930;18.276;2023-09-12T14:20:58;98766.00;;;32.44;31.31
78317;BME280;67572;50.930;18.276;2023-09-12T14:24:03;98758.06;;;32.09;31.86
78317;BME280;67572;50.930;18.276;2023-09-12T14:27:07;98752.28;;;32.05;32.24
78317;BME280;67572;50.930;18.276;2023-09-12T14:30:27;98750.22;;;31.00;33.01
78317;BME280;67572;50.930;18.276;2023-09-12T14:33:37;98753.56;;;30.73;32.55
78317;BME280;67572;50.930;18.276;2023-09-12T14:36:42;98753.19;;;31.43;32.27
78317;BME280;67572;50.930;18.276;2023-09-12T14:39:48;98759.06;;;31.18;32.90
78317;BME280;67572;50.930;18.276;2023-09-12T14:42:51;98747.53;;;31.50;32.26
78317;BME280;67572;50.930;18.276;2023-09-12T14:45:55;98754.03;;;31.61;32.03
78317;BME280;67572;50.930;18.276;2023-09-12T14:48:58;98754.28;;;31.26;33.23
78317;BME280;67572;50.930;18.276;2023-09-12T14:52:05;98747.84;;;30.63;34.36
78317;BME280;67572;50.930;18.276;2023-09-12T14:55:22;98751.22;;;30.93;33.74
78317;BME280;67572;50.930;18.276;2023-09-12T14:58:26;98755.94;;;30.98;32.90
78317;BME280;67572;50.930;18.276;2023-09-12T15:01:30;98752.16;;;30.71;33.97
78317;BME280;67572;50.930;18.276;2023-09-12T15:04:34;98754.22;;;31.09;33.59
78317;BME280;67572;50.930;18.276;2023-09-12T15:07:39;98747.41;;;31.11;33.04
78317;BME280;67572;50.930;18.276;2023-09-12T15:10:42;98750.00;;;30.73;33.44
78317;BME280;67572;50.930;18.276;2023-09-12T15:13:46;98746.03;;;30.40;35.00
78317;BME280;67572;50.930;18.276;2023-09-12T15:16:50;98754.59;;;30.44;33.86
78317;BME280;67572;50.930;18.276;2023-09-12T15:19:54;98749.78;;;30.51;34.63
78317;BME280;67572;50.930;18.276;2023-09-12T15:22:59;98748.00;;;30.56;34.39
78317;BME280;67572;50.930;18.276;2023-09-12T15:26:02;98741.00;;;30.37;34.46
78317;BME280;67572;50.930;18.276;2023-09-12T15:29:06;98747.50;;;30.31;34.80
78317;BME280;67572;50.930;18.276;2023-09-12T15:32:11;98749.41;;;30.71;34.90
78317;BME280;67572;50.930;18.276;2023-09-12T15:35:14;98742.75;;;30.55;33.98
78317;BME280;67572;50.930;18.276;2023-09-12T15:38:19;98741.94;;;30.54;34.94
78317;BME280;67572;50.930;18.276;2023-09-12T15:41:23;98740.69;;;30.22;35.10
78317;BME280;67572;50.930;18.276;2023-09-12T15:44:26;98729.50;;;30.11;34.57
78317;BME280;67572;50.930;18.276;2023-09-12T15:47:30;98742.50;;;29.93;35.91
78317;BME280;67572;50.930;18.276;2023-09-12T15:50:34;98737.75;;;29.88;38.33
78317;BME280;67572;50.930;18.276;2023-09-12T15:53:39;98732.38;;;29.81;37.42
78317;BME280;67572;50.930;18.276;2023-09-12T15:56:43;98729.72;;;29.40;38.48
78317;BME280;67572;50.930;18.276;2023-09-12T15:59:47;98729.28;;;29.54;37.67
78317;BME280;67572;50.930;18.276;2023-09-12T16:02:51;98732.41;;;29.16;40.45
78317;BME280;67572;50.930;18.276;2023-09-12T16:05:55;98727.25;;;28.96;38.42
78317;BME280;67572;50.930;18.276;2023-09-12T16:09:00;98727.75;;;29.17;38.50